Stewart, Canada
Current Conditions -  °F | °C
As of 5:53 AM on Saturday 25 Oct 2014 (Local Time) from PAKT Reporting Station
Overcast Overcast  
Wind Chill: 44°   Ceiling: 7500
Heat Index: 44°   Visibility: 10mi
Dew Point: 42°   Wind: 0mph
Humidity: 93%   Direction: NA
Pressure: 29.73"   Gusts: NA
Location:  55.93°N, 130°W
Report Text: PAKT 251253Z AUTO 00000KT 10SM OVC075 07/06 A2973 RMK AO2 SLP068 T00670056 TSNO
Loading
Personal Weather Stations






























Interactive Weather Map
Tropical Storm Tracking
New forecast layout! Learn more

10-Day Weather Forecast

Advertisements
Track Severe Weather on mobile